Time;durP1;ratioP1;P1;durP2;ratioP2;P2;SDS_P1;SDS_P2;PMS_P1;PMS_P2;Temp;Humidity;BMP_temperature;BMP_pressure;BME280_temperature;BME280_humidity;BME280_pressure;Samples;Min_cycle;Max_cycle;Signal;HPM_P1;HPM_P2
2022/09/15 00:01:03;;;;;;;2.10;1.43;;;21.60;97.70;;;22.08;63.63;97660.31;4985327;28;124130;-74
2022/09/15 00:03:30;;;;;;;3.13;2.33;;;21.60;98.10;;;22.10;63.57;97654.28;4975987;28;123387;-74
2022/09/15 00:05:57;;;;;;;2.00;1.40;;;21.70;97.90;;;22.12;63.93;97654.66;4985841;28;114096;-74
2022/09/15 00:08:24;;;;;;;4.90;1.77;;;21.70;97.90;;;22.11;63.66;97653.03;4982286;28;113920;-74
2022/09/15 00:10:57;;;;;;;1.97;1.47;;;21.70;97.90;;;22.12;63.70;97649.03;4986910;28;124439;-74
2022/09/15 00:13:25;;;;;;;2.70;1.90;;;21.70;97.80;;;22.10;63.57;97646.63;4985899;28;124557;-74
2022/09/15 00:15:52;;;;;;;3.43;1.77;;;21.60;97.80;;;22.10;63.58;97641.00;4973683;28;114333;-76
2022/09/15 00:18:20;;;;;;;3.80;1.57;;;21.70;97.70;;;22.09;63.18;97633.78;4988778;28;114150;-74
2022/09/15 00:20:46;;;;;;;3.23;1.63;;;21.70;97.70;;;22.09;63.60;97633.78;4986111;28;124646;-76
2022/09/15 00:23:15;;;;;;;7.13;1.87;;;21.60;97.60;;;22.08;63.42;97634.19;4984663;28;123768;-76
2022/09/15 00:25:48;;;;;;;2.97;1.53;;;21.70;97.70;;;22.02;63.08;97636.66;4989424;28;115177;-76
2022/09/15 00:28:21;;;;;;;3.40;1.70;;;21.60;97.50;;;21.91;63.37;97628.34;4988520;28;115275;-75
2022/09/15 00:30:51;;;;;;;2.17;1.70;;;21.50;97.50;;;21.86;63.48;97637.22;4989433;28;124616;-76
2022/09/15 00:33:19;;;;;;;2.60;2.20;;;21.50;97.50;;;21.82;63.42;97630.84;4978863;28;123946;-74
2022/09/15 00:35:48;;;;;;;2.63;1.60;;;21.40;97.50;;;21.80;63.58;97624.84;4989133;28;114133;-75
2022/09/15 00:38:16;;;;;;;2.93;1.80;;;21.40;97.50;;;21.80;63.48;97622.03;4990707;28;111962;-74
2022/09/15 00:40:53;;;;;;;3.20;1.67;;;21.50;97.50;;;21.80;63.30;97622.81;4987352;28;124080;-75
2022/09/15 00:44:02;;;;;;;2.33;1.77;;;21.40;97.50;;;21.79;63.15;97626.06;4985863;28;122900;-76
2022/09/15 00:46:33;;;;;;;2.90;1.63;;;21.40;97.40;;;21.78;63.20;97624.44;4987767;28;114120;-75
2022/09/15 00:49:02;;;;;;;2.73;1.70;;;21.40;97.40;;;21.81;62.94;97632.03;4980612;28;113948;-75
2022/09/15 00:52:00;;;;;;;1.90;1.30;;;21.40;97.40;;;21.81;63.00;97632.03;4983463;28;124470;-75
2022/09/15 00:54:42;;;;;;;1.80;1.57;;;21.40;97.40;;;21.81;62.98;97629.22;4984606;28;123682;-76
2022/09/15 00:57:41;;;;;;;4.00;1.40;;;21.40;97.30;;;21.80;62.95;97630.47;4968216;28;113765;-73
2022/09/15 01:00:16;;;;;;;2.67;1.40;;;21.70;97.40;;;21.81;62.70;97630.03;4987131;28;114419;-73
2022/09/15 01:02:45;;;;;;;4.53;1.73;;;21.40;97.30;;;21.81;63.09;97618.00;4972562;28;123811;-75
2022/09/15 01:05:16;;;;;;;1.73;1.57;;;21.40;97.20;;;21.84;62.77;97625.59;4974364;28;123628;-75
2022/09/15 01:07:54;;;;;;;2.33;1.50;;;21.40;97.20;;;21.83;62.69;97626.81;4992239;28;113822;-73
2022/09/15 01:10:35;;;;;;;1.90;1.30;;;21.40;97.10;;;21.84;62.36;97631.22;4985306;28;114069;-74
2022/09/15 01:13:09;;;;;;;3.30;1.70;;;21.50;97.10;;;21.84;62.18;97629.22;4978749;28;124338;-75
2022/09/15 01:16:20;;;;;;;3.43;1.30;;;21.40;97.00;;;21.82;62.59;97625.22;4990583;28;124133;-74
2022/09/15 01:19:19;;;;;;;3.50;1.70;;;21.50;97.00;;;21.86;62.25;97628.00;4968759;28;115541;-75
2022/09/15 01:22:24;;;;;;;2.07;1.60;;;21.50;97.00;;;21.86;62.27;97630.81;4974367;28;115298;-75
2022/09/15 01:25:02;;;;;;;;;;;21.50;97.00;;;21.88;62.30;97636.81;4978306;28;124057;-74
2022/09/15 01:27:31;;;;;;;;;;;21.50;97.00;;;21.87;62.01;97621.97;4981748;28;122917;-73
2022/09/15 01:30:18;;;;;;;;;;;21.50;97.00;;;21.85;62.04;97610.31;4977144;28;114207;-74
2022/09/15 01:33:04;;;;;;;;;;;21.50;96.90;;;21.82;62.24;97611.16;4984350;28;113798;-75
2022/09/15 01:36:01;;;;;;;;;;;21.40;96.80;;;21.76;62.38;97610.81;4977076;28;124987;-75
2022/09/15 01:38:36;;;;;;;;;;;21.40;96.80;;;21.73;62.26;97599.59;4979049;28;124288;-74
2022/09/15 01:41:15;;;;;;;2.37;1.70;;;21.30;96.80;;;21.67;62.38;97595.63;4987505;28;114371;-75
2022/09/15 01:44:00;;;;;;;3.93;1.63;;;21.30;96.80;;;21.60;61.98;97600.13;4985576;28;114361;-76
2022/09/15 01:46:32;;;;;;;1.83;1.60;;;21.30;96.80;;;21.55;62.72;97602.59;4984088;28;124068;-76
2022/09/15 01:49:01;;;;;;;3.10;1.70;;;21.20;96.90;;;21.51;62.94;97593.38;4974493;28;124094;-75
2022/09/15 01:51:29;;;;;;;3.13;1.63;;;21.20;96.90;;;21.47;62.86;97596.22;4973643;28;113966;-75
2022/09/15 01:53:58;;;;;;;4.20;1.50;;;21.10;96.90;;;21.44;63.05;97593.44;4980363;28;113938;-76
2022/09/15 01:56:25;;;;;;;2.60;1.63;;;21.10;97.00;;;21.40;62.82;97587.84;4977394;28;124565;-74
2022/09/15 01:58:52;;;;;;;4.20;1.70;;;21.10;97.00;;;21.36;62.95;97587.06;4986905;28;123950;-74
2022/09/15 02:01:28;;;;;;;2.35;1.80;;;21.00;97.00;;;21.30;63.48;97594.31;4978385;28;114377;-75
2022/09/15 02:04:00;;;;;;;4.43;1.73;;;21.00;97.10;;;21.25;63.17;97598.38;4966703;28;114086;-74
2022/09/15 02:06:54;;;;;;;1.90;1.57;;;21.00;97.10;;;21.18;63.45;97582.38;4972493;28;124129;-74
2022/09/15 02:09:29;;;;;;;3.60;1.80;;;20.90;97.10;;;21.17;63.06;97588.38;4986352;28;123642;-74
2022/09/15 02:12:09;;;;;;;2.50;1.60;;;20.90;97.10;;;21.13;63.56;97585.63;4972648;28;113091;-74
2022/09/15 02:15:04;;;;;;;3.13;1.60;;;20.80;97.10;;;21.11;63.25;97587.25;4987191;28;115015;-74
2022/09/15 02:17:34;;;;;;;3.50;1.70;;;20.80;97.10;;;21.12;63.47;97597.28;4987729;28;124122;-74
2022/09/15 02:20:14;;;;;;;2.63;1.57;;;20.80;97.10;;;21.13;63.55;97593.25;4977985;28;123521;-75
2022/09/15 02:22:47;;;;;;;2.27;1.50;;;20.80;97.10;;;21.14;63.31;97598.47;4985795;28;114375;-73
2022/09/15 02:25:21;;;;;;;3.70;1.70;;;20.80;97.10;;;21.14;63.09;97595.66;4986484;28;114593;-74
2022/09/15 02:27:52;;;;;;;3.70;1.50;;;20.80;97.10;;;21.16;63.16;97593.22;4986772;28;124358;-73
2022/09/15 02:30:19;;;;;;;5.20;1.50;;;20.80;97.00;;;21.17;63.15;97597.63;4986689;28;123587;-76
2022/09/15 02:32:56;;;;;;;2.03;1.60;;;20.80;97.00;;;21.19;62.71;97603.63;4984178;28;114062;-77
2022/09/15 02:35:27;;;;;;;1.90;1.60;;;20.80;97.00;;;21.18;63.04;97602.03;4987501;28;113894;-73
2022/09/15 02:37:55;;;;;;;2.30;1.70;;;20.90;97.00;;;21.19;62.89;97605.63;4981781;28;124595;-74
2022/09/15 02:40:27;;;;;;;3.13;1.97;;;20.80;97.00;;;21.18;62.79;97604.06;4987766;28;124049;-74
2022/09/15 02:43:02;;;;;;;2.40;1.60;;;20.80;96.90;;;21.13;62.77;97602.47;4974462;28;114258;-75
2022/09/15 02:45:30;;;;;;;3.53;1.50;;;20.80;96.90;;;21.09;63.19;97590.47;4984501;28;113202;-75
2022/09/15 02:47:57;;;;;;;2.63;1.40;;;20.80;96.90;;;21.09;62.97;97587.66;4984291;28;123896;-75
2022/09/15 02:50:25;;;;;;;2.93;1.70;;;19.80;96.50;;;21.09;63.24;97584.88;4979864;28;123907;-76
2022/09/15 02:52:53;;;;;;;3.53;1.60;;;20.70;96.90;;;21.09;62.92;97587.66;4986846;28;114373;-75
2022/09/15 02:55:20;;;;;;;3.33;1.67;;;20.70;96.90;;;21.08;62.94;97583.25;4979644;28;113496;-75
2022/09/15 02:57:47;;;;;;;1.53;1.43;;;20.70;96.90;;;21.07;63.09;97587.28;4982775;28;123092;-75
2022/09/15 03:00:16;;;;;;;2.73;1.37;;;20.70;97.00;;;21.07;62.82;97586.47;4986115;28;123794;-76
2022/09/15 03:02:48;;;;;;;3.90;1.50;;;20.70;97.00;;;21.06;62.92;97582.84;4977153;28;115230;-75
2022/09/15 03:05:18;;;;;;;1.87;1.40;;;20.70;97.00;;;21.07;63.05;97586.47;4987506;28;114979;-74
2022/09/15 03:07:44;;;;;;;2.40;1.40;;;20.70;97.30;;;21.07;63.01;97587.28;4962625;28;123021;-74
2022/09/15 03:10:12;;;;;;;2.50;1.47;;;20.70;97.00;;;21.08;62.75;97588.88;4967076;28;123632;-74
2022/09/15 03:12:46;;;;;;;3.33;1.47;;;20.70;97.00;;;21.08;63.21;97588.88;4992592;28;113907;-73
2022/09/15 03:15:16;;;;;;;3.70;1.60;;;20.70;96.90;;;21.07;62.80;97583.69;4974994;28;114691;-73
2022/09/15 03:17:45;;;;;;;2.70;1.40;;;20.70;96.90;;;21.05;63.01;97586.88;4975229;28;124420;-74
2022/09/15 03:20:16;;;;;;;2.70;1.47;;;20.70;96.90;;;21.06;62.96;97584.88;4982813;28;123724;-74
2022/09/15 03:22:42;;;;;;;3.50;1.30;;;20.70;96.90;;;21.05;62.57;97589.69;4987475;28;114222;-74
2022/09/15 03:25:10;;;;;;;2.40;1.23;;;20.70;96.90;;;21.02;62.91;97584.91;4982135;28;112337;-77
2022/09/15 03:27:36;;;;;;;2.23;1.30;;;20.70;96.90;;;21.04;63.16;97582.50;4987936;28;124056;-75
2022/09/15 03:30:05;;;;;;;1.80;1.23;;;20.70;97.00;;;21.03;62.68;97589.28;4985469;28;124742;-74
2022/09/15 03:32:32;;;;;;;1.50;1.10;;;20.60;96.90;;;21.03;63.10;97592.09;4985440;28;115685;-76
2022/09/15 03:34:58;;;;;;;1.83;1.27;;;20.70;96.90;;;21.01;63.09;97591.75;4989516;28;113468;-73
2022/09/15 03:37:25;;;;;;;3.70;1.53;;;20.60;96.90;;;21.01;63.16;97585.31;4969997;28;123209;-74
2022/09/15 03:39:51;;;;;;;1.87;1.23;;;20.60;96.90;;;21.00;62.82;97587.31;4972435;28;123888;-74
2022/09/15 03:42:19;;;;;;;1.83;1.37;;;20.60;96.90;;;20.99;62.99;97584.94;4990273;28;114690;-74
2022/09/15 03:44:46;;;;;;;4.70;1.57;;;20.60;96.90;;;20.98;62.85;97584.13;4983295;28;114220;-74
2022/09/15 03:47:12;;;;;;;2.40;1.40;;;20.60;96.90;;;20.95;63.06;97582.13;4991800;28;123784;-76
2022/09/15 03:49:39;;;;;;;3.57;1.33;;;20.60;97.00;;;20.94;62.85;97577.75;4990396;28;124304;-74
2022/09/15 03:52:05;;;;;;;1.50;1.30;;;20.60;97.00;;;20.92;62.99;97580.16;4988673;28;114994;-74
2022/09/15 03:54:32;;;;;;;2.00;1.17;;;20.50;97.00;;;20.91;62.98;97587.00;4988774;28;115390;-76
2022/09/15 03:56:58;;;;;;;3.03;1.30;;;20.50;97.00;;;20.90;63.06;97588.19;4991875;28;123053;-74
2022/09/15 03:59:25;;;;;;;1.80;1.50;;;20.50;97.00;;;20.89;63.05;97589.41;4988508;28;125046;-75
2022/09/15 04:01:51;;;;;;;1.50;1.30;;;20.50;97.00;;;20.87;63.30;97589.81;4990407;28;114308;-76
2022/09/15 04:04:18;;;;;;;2.20;1.17;;;20.50;97.00;;;20.89;63.01;97595.03;4984889;28;114032;-74
2022/09/15 04:06:44;;;;;;;1.87;1.40;;;20.50;97.10;;;20.86;63.23;97602.25;4990421;28;123935;-75
2022/09/15 04:09:11;;;;;;;2.73;1.30;;;20.50;97.10;;;20.84;63.45;97595.44;4988776;28;123982;-75
2022/09/15 04:11:38;;;;;;;4.70;1.33;;;20.50;97.10;;;20.82;63.55;97597.84;4978563;28;114407;-76
2022/09/15 04:14:05;;;;;;;2.37;1.33;;;20.40;97.10;;;20.80;63.35;97589.06;4990296;28;115201;-76
2022/09/15 04:16:32;;;;;;;2.70;1.27;;;20.40;97.10;;;20.76;63.58;97594.69;4988864;28;124623;-76
2022/09/15 04:18:59;;;;;;;2.60;1.30;;;20.40;97.20;;;20.74;63.36;97592.31;4991296;28;124180;-76
2022/09/15 04:21:26;;;;;;;1.60;1.30;;;20.40;97.20;;;20.75;63.72;97587.50;4992193;28;114049;-74
2022/09/15 04:23:53;;;;;;;1.87;1.40;;;20.40;97.20;;;20.74;63.40;97592.31;4989001;28;113920;-76
2022/09/15 04:26:30;;;;;;;2.03;1.40;;;20.40;97.30;;;20.74;63.85;97595.13;4991743;28;124379;-75
2022/09/15 04:28:57;;;;;;;1.77;1.43;;;20.40;97.30;;;20.72;63.33;97589.09;4988053;28;123845;-76
2022/09/15 04:31:24;;;;;;;2.90;1.50;;;20.40;97.30;;;20.72;63.39;97583.50;4988531;28;113570;-74
2022/09/15 04:33:55;;;;;;;2.73;1.30;;;20.30;97.30;;;20.73;63.53;97585.09;4989712;28;113975;-75
2022/09/15 04:36:24;;;;;;;2.00;1.30;;;20.40;97.30;;;20.72;64.07;97589.09;4979967;28;124635;-74
2022/09/15 04:38:51;;;;;;;1.43;1.20;;;20.30;97.30;;;20.72;63.73;97577.88;4984555;28;123813;-74
2022/09/15 04:41:19;;;;;;;1.53;1.43;;;20.30;97.40;;;20.71;63.72;97578.28;4987281;28;115003;-73
2022/09/15 04:43:46;;;;;;;1.47;1.30;;;20.30;97.40;;;20.69;64.11;97583.53;4988497;28;114922;-73
2022/09/15 04:46:14;;;;;;;4.77;1.70;;;20.30;97.50;;;20.66;64.41;97575.91;4976252;28;123821;-73
2022/09/15 04:48:40;;;;;;;1.50;1.40;;;20.30;97.50;;;20.64;64.16;97575.53;4971042;28;122877;-73
2022/09/15 04:51:14;;;;;;;3.10;1.40;;;20.30;97.50;;;20.62;64.29;97573.13;4985914;28;114421;-75
2022/09/15 04:53:40;;;;;;;2.50;1.60;;;20.30;97.80;;;20.60;63.89;97581.16;4986634;28;113357;-74
2022/09/15 04:56:18;;;;;;;1.67;1.53;;;20.20;97.50;;;20.57;63.93;97581.97;4988855;28;124068;-76
2022/09/15 04:58:48;;;;;;;3.10;1.37;;;20.20;97.50;;;20.56;64.36;97591.59;4966608;28;124166;-73
2022/09/15 05:01:27;;;;;;;3.57;1.60;;;20.20;97.50;;;20.56;63.92;97585.19;4981425;28;114513;-74
2022/09/15 05:03:56;;;;;;;1.50;1.33;;;20.20;97.60;;;20.55;64.36;97595.59;4976037;28;114096;-75
2022/09/15 05:06:26;;;;;;;1.67;1.37;;;20.20;97.60;;;20.51;64.38;97598.41;4974654;28;124134;-76
2022/09/15 05:08:55;;;;;;;1.57;1.20;;;20.20;97.60;;;20.51;64.24;97589.97;4976525;28;123602;-76
2022/09/15 05:11:23;;;;;;;4.53;1.43;;;20.20;97.60;;;20.51;64.28;97598.41;4968761;28;114241;-78
2022/09/15 05:13:51;;;;;;;2.07;1.40;;;20.10;97.50;;;20.52;64.22;97613.22;4973980;28;114019;-78
2022/09/15 05:16:24;;;;;;;1.67;1.30;;;20.20;97.50;;;20.54;64.23;97612.88;4971001;28;124110;-75
2022/09/15 05:18:54;;;;;;;2.17;1.60;;;20.20;97.50;;;20.54;63.96;97605.25;4973302;28;124465;-75
2022/09/15 05:21:22;;;;;;;1.70;1.50;;;20.20;97.50;;;20.55;64.06;97612.44;4982298;28;113318;-75
2022/09/15 05:23:50;;;;;;;1.90;1.47;;;20.20;97.50;;;20.56;63.90;97614.06;4966639;28;114153;-75
2022/09/15 05:26:24;;;;;;;2.80;1.30;;;20.20;97.50;;;20.57;64.05;97620.47;4972714;28;124222;-74
2022/09/15 05:28:50;;;;;;;1.77;1.20;;;20.20;97.50;;;20.56;64.09;97611.25;4968311;28;123990;-74
2022/09/15 05:31:30;;;;;;;1.50;1.40;;;20.20;97.50;;;20.55;64.03;97615.25;4968144;28;115157;-74
2022/09/15 05:33:59;;;;;;;1.83;1.30;;;20.20;97.50;;;20.54;64.19;97610.84;4976040;28;114674;-75
2022/09/15 05:36:26;;;;;;;1.40;1.30;;;20.20;97.60;;;20.54;64.14;97621.28;4969101;28;123886;-85
2022/09/15 05:38:57;;;;;;;2.00;1.33;;;20.20;97.50;;;20.55;64.12;97612.44;4967921;28;123575;-76
2022/09/15 05:41:26;;;;;;;2.73;1.77;;;20.60;97.70;;;20.53;63.84;97614.84;4968327;28;114887;-76
2022/09/15 05:43:55;;;;;;;1.50;1.20;;;20.20;97.60;;;20.54;63.77;97622.06;4968419;28;113998;-76
2022/09/15 05:46:24;;;;;;;1.20;1.10;;;20.10;97.60;;;20.55;64.02;97612.44;4970377;28;124037;-74
2022/09/15 05:48:55;;;;;;;1.73;1.20;;;20.10;97.50;;;20.54;64.03;97618.47;4974135;28;122740;-75
2022/09/15 05:51:21;;;;;;;1.70;1.30;;;20.10;97.50;;;20.52;63.99;97616.03;4966317;28;114274;-75
2022/09/15 05:53:49;;;;;;;1.60;1.43;;;20.10;97.50;;;20.52;64.01;97625.28;4967092;28;113870;-77
2022/09/15 05:56:17;;;;;;;2.27;1.37;;;19.10;97.10;;;20.50;64.04;97627.69;4980421;28;124277;-75
2022/09/15 05:58:46;;;;;;;2.97;1.30;;;20.10;97.50;;;20.50;64.21;97621.28;4955990;28;122993;-74
2022/09/15 06:01:25;;;;;;;1.57;1.10;;;20.10;97.50;;;20.48;63.88;97612.47;4967856;28;114944;-73
2022/09/15 06:03:53;;;;;;;2.53;1.53;;;20.10;97.80;;;20.50;64.20;97618.47;4967605;28;114137;-74
2022/09/15 06:06:20;;;;;;;3.07;1.23;;;20.10;97.50;;;20.50;64.16;97615.66;4980362;28;123738;-75
2022/09/15 06:08:50;;;;;;;2.20;1.40;;;20.10;97.50;;;20.50;63.81;97616.47;4970295;28;123326;-74
2022/09/15 06:11:19;;;;;;;2.30;1.17;;;20.10;97.60;;;20.51;64.06;97611.63;4968887;28;114491;-75
2022/09/15 06:13:46;;;;;;;1.63;1.20;;;20.10;97.50;;;20.51;64.19;97611.63;4968199;28;113812;-75
2022/09/15 06:16:18;;;;;;;2.70;1.40;;;20.10;97.50;;;20.51;64.10;97611.63;4984938;28;125268;-83
2022/09/15 06:18:46;;;;;;;2.93;1.20;;;20.10;97.50;;;20.53;64.09;97614.84;4976853;28;123837;-73
2022/09/15 06:21:22;;;;;;;1.30;1.20;;;20.20;97.50;;;20.53;63.96;97614.84;4972472;28;115305;-74
2022/09/15 06:23:58;;;;;;;3.53;1.30;;;20.20;97.50;;;20.54;63.66;97616.47;4967681;28;114962;-76
2022/09/15 06:26:26;;;;;;;2.63;1.20;;;20.20;97.40;;;20.54;63.82;97621.28;4983047;28;123516;-73
2022/09/15 06:28:59;;;;;;;1.50;1.13;;;20.20;97.50;;;20.54;63.99;97627.69;4966959;28;124569;-73
2022/09/15 06:31:29;;;;;;;1.63;1.20;;;20.20;97.50;;;20.55;63.91;97628.47;4964868;28;114395;-74
2022/09/15 06:33:56;;;;;;;1.60;1.10;;;20.20;97.50;;;20.56;63.97;97625.28;4965886;28;113837;-75
2022/09/15 06:36:26;;;;;;;1.70;1.10;;;20.20;97.60;;;20.56;64.44;97636.50;4973032;28;124009;-73
2022/09/15 06:38:54;;;;;;;2.10;1.30;;;20.20;97.70;;;20.58;64.51;97634.09;4969584;28;123365;-74
2022/09/15 06:41:20;;;;;;;1.47;1.23;;;20.20;97.80;;;20.60;64.88;97628.84;4976418;28;113631;-74
2022/09/15 06:43:48;;;;;;;1.90;1.43;;;20.20;97.90;;;20.62;64.67;97646.09;4974268;28;114066;-74
2022/09/15 06:46:19;;;;;;;2.43;1.20;;;20.30;98.00;;;20.62;65.04;97646.09;4966144;28;124498;-74
2022/09/15 06:48:46;;;;;;;3.87;1.77;;;20.20;98.00;;;20.60;65.46;97654.13;4981393;28;122886;-78
2022/09/15 06:51:16;;;;;;;2.23;1.20;;;20.20;98.20;;;20.58;65.71;97656.56;4982374;28;114330;-76
2022/09/15 06:53:45;;;;;;;2.60;1.20;;;20.20;98.40;;;20.57;65.66;97665.38;4983728;28;114012;-75
2022/09/15 06:56:18;;;;;;;3.10;1.20;;;20.20;98.50;;;20.55;65.87;97671.38;4981211;28;124531;-74
2022/09/15 06:58:48;;;;;;;1.60;1.50;;;20.30;98.70;;;20.55;65.98;97673.38;4991507;28;123594;-74
2022/09/15 07:01:24;;;;;;;1.77;1.43;;;20.20;98.70;;;20.53;66.50;97662.56;4981160;28;114247;-76
2022/09/15 07:03:51;;;;;;;6.20;1.40;;;20.20;98.90;;;20.51;66.54;97665.75;4985092;28;113420;-77
2022/09/15 07:06:18;;;;;;;2.10;1.30;;;20.20;99.00;;;20.47;66.54;97662.16;4973734;28;124030;-75
2022/09/15 07:08:45;;;;;;;2.77;1.60;;;20.20;99.10;;;20.44;66.90;97660.16;4978215;28;123835;-75
2022/09/15 07:11:13;;;;;;;1.93;1.30;;;20.10;99.20;;;20.42;67.35;97670.22;4986186;28;115900;-75
2022/09/15 07:13:40;;;;;;;2.07;1.40;;;20.10;99.30;;;20.41;67.49;97662.97;4985997;28;113957;-76
2022/09/15 07:16:10;;;;;;;3.60;1.50;;;20.10;99.50;;;20.40;67.71;97662.19;4987051;28;124639;-76
2022/09/15 07:18:37;;;;;;;4.03;1.23;;;20.10;99.60;;;20.40;67.73;97667.81;4971142;28;123868;-75
2022/09/15 07:21:08;;;;;;;1.80;1.10;;;20.10;99.70;;;20.39;67.90;97677.44;4988002;28;114344;-77
2022/09/15 07:23:35;;;;;;;3.10;1.20;;;20.10;99.80;;;20.38;68.21;97673.00;4977456;28;113505;-74
2022/09/15 07:26:09;;;;;;;2.20;1.50;;;20.00;99.90;;;20.38;67.95;97669.41;4983948;28;124170;-74
2022/09/15 07:28:37;;;;;;;2.70;1.47;;;20.00;99.90;;;20.41;68.04;97674.19;4987175;28;124216;-74
2022/09/15 07:31:05;;;;;;;2.27;1.03;;;20.10;99.90;;;20.42;68.13;97673.81;4982442;28;114610;-74
2022/09/15 07:33:33;;;;;;;3.20;1.43;;;20.10;99.90;;;20.41;67.96;97674.19;4991244;28;114023;-74
2022/09/15 07:36:02;;;;;;;1.93;1.40;;;20.00;99.90;;;20.41;68.03;97682.63;4971662;28;124825;-74
2022/09/15 07:38:28;;;;;;;1.97;1.57;;;20.00;99.90;;;20.40;68.01;97675.41;4982963;28;123230;-75
2022/09/15 07:41:06;;;;;;;3.10;1.47;;;20.00;99.90;;;20.39;68.15;97676.59;4975101;28;114228;-77
2022/09/15 07:43:32;;;;;;;2.67;1.60;;;20.00;99.90;;;20.40;68.52;97683.84;4969982;28;113885;-75
2022/09/15 07:46:00;;;;;;;1.93;1.20;;;20.00;99.90;;;20.39;68.29;97682.22;4968758;28;124944;-74
2022/09/15 07:48:28;;;;;;;1.77;1.10;;;20.10;99.90;;;20.41;68.62;97688.22;4977585;28;123821;-74
2022/09/15 07:50:55;;;;;;;2.20;1.53;;;20.00;99.90;;;20.42;68.63;97685.03;4968828;28;114407;-75
2022/09/15 07:53:21;;;;;;;1.80;1.33;;;20.00;99.90;;;20.42;68.50;97687.84;4975216;28;113668;-74
2022/09/15 07:55:52;;;;;;;3.33;1.70;;;20.00;99.90;;;20.42;68.41;97687.84;4971844;28;124114;-74
2022/09/15 07:58:20;;;;;;;2.23;1.47;;;20.00;99.90;;;20.44;68.51;97690.22;4969755;28;124116;-74
2022/09/15 08:00:47;;;;;;;3.40;1.97;;;20.00;99.90;;;20.46;68.77;97699.03;4961391;28;114191;-74
2022/09/15 08:03:15;;;;;;;3.47;1.30;;;20.10;99.90;;;20.44;68.77;97702.25;4980069;28;115158;-74
2022/09/15 08:05:41;;;;;;;2.30;1.40;;;20.10;99.90;;;20.43;68.92;97692.25;4972203;28;124021;-74
2022/09/15 08:08:08;;;;;;;1.97;1.33;;;20.10;99.90;;;20.44;69.10;97687.41;4968843;28;124031;-74
2022/09/15 08:10:38;;;;;;;2.13;1.43;;;20.10;99.90;;;20.46;68.96;97702.63;4968033;28;113505;-74
2022/09/15 08:13:05;;;;;;;5.63;1.33;;;20.00;99.90;;;20.47;69.26;97700.63;4993127;28;114037;-74
2022/09/15 08:15:36;;;;;;;2.73;1.13;;;20.00;99.90;;;20.46;69.21;97704.66;4989070;28;124054;-74
2022/09/15 08:18:03;;;;;;;3.50;1.50;;;20.00;99.90;;;20.47;69.43;97715.50;4982262;28;122905;-75
2022/09/15 08:20:30;;;;;;;4.40;1.53;;;20.00;99.90;;;20.45;69.20;97714.28;4987570;28;114502;-75
2022/09/15 08:22:57;;;;;;;2.27;1.50;;;20.00;99.90;;;20.43;69.35;97722.31;4993200;28;114163;-74
2022/09/15 08:25:24;;;;;;;2.33;1.67;;;20.00;99.90;;;20.42;69.68;97718.69;4986249;28;124088;-74
2022/09/15 08:27:53;;;;;;;2.80;1.40;;;20.00;99.90;;;20.39;69.76;97732.72;4977016;28;124178;-74
2022/09/15 08:30:20;;;;;;;2.03;1.20;;;20.00;99.90;;;20.39;69.55;97725.13;4975241;28;114816;-74
2022/09/15 08:32:46;;;;;;;1.63;1.37;;;20.10;99.90;;;20.38;70.01;97725.53;4988026;28;114203;-76
2022/09/15 08:35:16;;;;;;;2.07;1.23;;;20.00;99.90;;;20.37;70.13;97726.72;4988253;28;123736;-74
2022/09/15 08:37:43;;;;;;;2.70;1.47;;;20.00;99.90;;;20.39;70.04;97724.31;4985004;28;123118;-75
2022/09/15 08:40:31;;;;;;;2.67;1.60;;;20.00;99.90;;;20.40;69.62;97721.09;4982021;28;114325;-74
2022/09/15 08:43:07;;;;;;;3.47;1.30;;;20.00;99.90;;;20.44;69.69;97729.50;4967867;28;114331;-75
2022/09/15 08:45:56;;;;;;;4.43;1.47;;;20.00;99.90;;;20.46;69.66;97727.09;4968175;28;123892;-74
2022/09/15 08:48:54;;;;;;;1.60;1.30;;;20.00;99.90;;;20.47;69.73;97734.31;4974538;28;123784;-74
2022/09/15 08:51:31;;;;;;;5.70;1.63;;;20.00;99.90;;;20.46;69.79;97727.91;4954476;28;116029;-74
2022/09/15 08:54:11;;;;;;;2.10;0.93;;;20.00;99.90;;;20.48;69.50;97738.72;4974890;28;114595;-75
2022/09/15 08:56:40;;;;;;;3.47;1.20;;;20.00;99.90;;;20.49;69.76;97737.50;4973123;28;123808;-75
2022/09/15 08:59:14;;;;;;;2.10;1.10;;;20.10;99.90;;;20.52;69.63;97739.50;4983563;28;123652;-73
2022/09/15 09:02:05;;;;;;;2.70;1.20;;;20.10;99.90;;;20.54;69.75;97742.75;4988659;28;114328;-75
2022/09/15 09:04:59;;;;;;;1.83;1.40;;;20.10;99.90;;;20.60;69.68;97748.75;4985547;28;114029;-75
2022/09/15 09:07:54;;;;;;;3.50;1.90;;;20.20;99.90;;;20.61;69.27;97747.56;4988485;28;125832;-75
2022/09/15 09:10:48;;;;;;;3.27;1.50;;;20.20;99.90;;;20.62;69.30;97752.75;4971259;28;123836;-74
2022/09/15 09:13:19;;;;;;;2.73;1.23;;;20.20;99.90;;;20.65;69.22;97746.31;4971182;28;114126;-74
2022/09/15 09:15:56;;;;;;;3.00;1.10;;;20.20;99.90;;;20.69;68.94;97752.72;4982037;28;114201;-75
2022/09/15 09:18:50;;;;;;;1.83;1.00;;;20.30;99.90;;;20.70;68.85;97753.53;4986211;28;124868;-75
2022/09/15 09:21:28;;;;;;;3.83;1.20;;;20.30;99.90;;;20.73;69.03;97753.50;4977860;28;122690;-75
2022/09/15 09:24:30;;;;;;;2.40;1.40;;;20.30;99.90;;;20.74;69.01;97743.91;4970219;28;114345;-75
2022/09/15 09:26:57;;;;;;;1.47;1.23;;;20.30;99.90;;;20.79;68.94;97764.31;4979572;28;115632;-75
2022/09/15 09:30:21;;;;;;;3.10;1.37;;;20.40;99.90;;;20.80;68.66;97755.50;4970845;28;127952;-75
2022/09/15 09:33:07;;;;;;;1.20;1.10;;;20.40;99.90;;;20.88;68.49;97759.09;4961421;28;123587;-75
2022/09/15 09:35:45;;;;;;;1.80;1.10;;;20.40;99.90;;;20.87;68.35;97763.09;4987492;28;114413;-75
2022/09/15 09:38:19;;;;;;;1.60;1.20;;;20.50;99.90;;;20.80;67.98;97766.75;4985378;28;114325;-75
2022/09/15 09:40:46;;;;;;;1.00;0.80;;;20.40;99.90;;;20.77;67.94;97761.13;4969227;28;124167;-75
2022/09/15 09:43:14;;;;;;;3.20;0.80;;;20.30;99.90;;;20.74;68.01;97760.75;4971048;28;123819;-75
2022/09/15 09:45:40;;;;;;;1.83;0.90;;;20.30;99.90;;;20.74;68.00;97760.75;4967769;28;115438;-75
2022/09/15 09:48:23;;;;;;;0.90;0.80;;;20.30;99.90;;;20.69;67.89;97763.16;4980531;28;114511;-75
2022/09/15 09:50:49;;;;;;;1.33;0.70;;;20.30;99.90;;;20.69;67.77;97754.75;4966837;28;124495;-75
2022/09/15 09:53:24;;;;;;;1.10;0.80;;;20.30;99.90;;;20.67;67.90;97740.31;4974687;28;123857;-75
2022/09/15 09:55:53;;;;;;;1.20;0.80;;;20.30;99.90;;;20.66;68.48;97742.31;4969141;28;114244;-75
2022/09/15 09:58:24;;;;;;;2.10;1.07;;;20.30;99.90;;;20.62;67.93;97755.56;4965579;28;113613;-75
2022/09/15 10:00:52;;;;;;;1.00;0.90;;;20.20;99.90;;;20.51;68.01;97765.97;4974562;28;123234;-75
2022/09/15 10:03:24;;;;;;;1.17;0.80;;;20.20;99.90;;;20.38;68.21;97753.56;4966712;28;123610;-76
2022/09/15 10:06:15;;;;;;;0.93;0.83;;;20.00;99.90;;;20.26;68.24;97761.22;4968567;28;114594;-75
2022/09/15 10:09:08;;;;;;;1.67;0.90;;;20.00;99.90;;;20.23;68.34;97747.16;4968338;28;115059;-75
2022/09/15 10:11:46;;;;;;;1.20;0.87;;;19.90;99.90;;;20.18;68.46;97758.81;4965841;28;123555;-76
2022/09/15 10:14:40;;;;;;;1.10;0.80;;;19.90;99.90;;;20.08;68.65;97754.81;4986265;28;123957;-76
2022/09/15 10:17:14;;;;;;;1.67;1.00;;;19.80;99.90;;;20.07;68.90;97761.63;4986634;28;114857;-74
2022/09/15 10:20:00;;;;;;;2.13;0.90;;;19.70;99.90;;;20.01;68.76;97774.44;4989495;28;113206;-75
2022/09/15 10:22:38;;;;;;;1.07;0.90;;;19.70;99.90;;;19.97;68.72;97782.06;4966970;28;124024;-74
2022/09/15 10:25:37;;;;;;;1.10;0.80;;;19.70;99.90;;;19.87;68.91;97778.03;4971570;28;124222;-74
2022/09/15 10:28:24;;;;;;;1.13;0.83;;;19.60;99.90;;;19.82;69.12;97789.66;4937906;28;114638;-75
2022/09/15 10:31:12;;;;;;;1.57;0.80;;;19.50;99.90;;;19.78;68.93;97784.03;4967274;28;114398;-74
2022/09/15 10:33:41;;;;;;;1.20;0.80;;;19.50;99.90;;;19.76;69.08;97797.66;4970488;28;124112;-75
2022/09/15 10:36:27;;;;;;;1.53;0.83;;;19.50;99.90;;;19.74;69.24;97802.84;4967268;28;124276;-73